08:03
Airports
History
Links
Donate
Help keep this website running!
PayPal
Bitcoin
Information on this page is community maintained and may be outdated or inaccurate and is intended for reference only or PC simulator navigating!
Always use approved charts for navigating.
4B9
SimsburyUpdated 21-May-2014
Simsbury (4B9)
Simsbury, Connecticut, United States (6070)
(U)
Lat/Lng:41° 54' 58.3" N / 72° 46' 37" W
41.916194 / -72.776944
Elevation:195'ft 59mMSL
Declination:W014°
ID / ICAO:4B9
FAA:4B9
Runways:1
Longest:(03-21) 675.9m 2,218ft Asphalt
Distance To
Airport ID:
Nearby VORs <50NM
Nearby NDBs
Nearby WeatherUpdated 03-28-17 07:51 GMT
Nearby weather at KBDL, Bradley Intl located 5.1 nautical miles from 4B9
Altimeter: 29.98
Visibility: 7.0 statute miles
Wind: 3 knots (210°)
Temp: 3°c 37°f
Humidity: 100.0%

METAR: KBDL 280751Z 21003KT 7SM FEW003 OVC006 03/03 A2998 RMK AO2 SLP153 T00330028

(Powered by phpweather)
Runway 03 / 21
Dimensions:675.9 x 15.2m 2218' x 50'ft
Surface:Asphalt
Edge Lights:Low intensity
Runway 03 [A]Runway 21 [B]
Heading:029°MH  015°TH209°MH   195°TH
Lat:
Lng:
41° 54' 49.89"N
72° 46' 42.37"W
41° 55' 10.81"N
72° 46' 34.31"W
Google Map
Nearby Airports
(C) Bradley Intl 5.1 NM
KBDL (WX) ENE 71°
(R) Roberts Farm 8.5 NM
CT85 ESE 102°
(R) Bancroft 8.9 NM
CT14 ESE 112°
(U) Skylark Airpark 10.3 NM
7B6 E 85°
(R) Morehaven 12.5 NM
MA43 NNW 329°
(R) Laurie Field 12.7 NM
CT19 ENE 73°
(C) Hartford-brainard 14.0 NM
KHFD (WX) SSE 152°
VFR Chart
Flight Planning at SkyVector.com